createdAt,value
2019-03-03T00:04:38.877Z,89.46
2019-03-03T00:09:41.739Z,90.04
2019-03-03T00:14:44.990Z,91.18
2019-03-03T00:19:47.907Z,91.69
2019-03-03T00:24:51.472Z,92.51
2019-03-03T00:29:54.742Z,92.97
2019-03-03T00:34:58.338Z,93.27
2019-03-03T00:40:19.535Z,94.11
2019-03-03T00:45:44.738Z,94.18
2019-03-03T00:50:58.053Z,94.92
2019-03-03T00:56:12.222Z,94.84
2019-03-03T01:01:26.793Z,95.62
2019-03-03T01:06:44.445Z,95.97
2019-03-03T01:12:07.102Z,96.28
2019-03-03T01:17:29.562Z,96.67
2019-03-03T01:22:43.113Z,96.79
2019-03-03T01:27:46.324Z,97.38
2019-03-03T01:32:49.224Z,97.52
2019-03-03T01:37:52.715Z,97.76
2019-03-03T01:42:55.640Z,97.54
2019-03-03T01:47:58.546Z,97.03
2019-03-03T01:53:01.416Z,96.24
2019-03-03T01:58:04.660Z,95.98
2019-03-03T02:03:08.109Z,95.41
2019-03-03T02:08:11.287Z,95.59
2019-03-03T02:13:14.394Z,95.43
2019-03-03T02:18:19.544Z,95.28
2019-03-03T02:23:22.166Z,95.17
2019-03-03T02:28:25.696Z,95.42
2019-03-03T02:33:29.202Z,95.52
2019-03-03T02:38:32.430Z,95.56
2019-03-03T02:43:39.063Z,96.15
2019-03-03T02:48:41.979Z,96.19
2019-03-03T02:53:45.785Z,96.38
2019-03-03T02:58:48.412Z,96.50
2019-03-03T03:03:51.946Z,96.76
2019-03-03T03:09:13.350Z,96.73
2019-03-03T03:14:41.719Z,95.87
2019-03-03T03:20:12.307Z,95.63
2019-03-03T03:25:34.769Z,94.60
2019-03-03T03:31:15.137Z,94.21
2019-03-03T03:36:37.228Z,93.22
2019-03-03T03:42:02.847Z,92.59
2019-03-03T03:47:15.259Z,92.12
2019-03-03T03:52:49.205Z,91.31
2019-03-03T03:58:10.531Z,90.82
2019-03-03T04:03:31.091Z,90.76
2019-03-03T04:09:02.722Z,91.26
2019-03-03T04:14:17.378Z,94.36
2019-03-03T04:19:31.366Z,96.28
2019-03-03T04:24:52.393Z,97.81
2019-03-03T04:30:09.219Z,98.15
2019-03-03T04:35:34.452Z,98.63
2019-03-03T04:41:03.049Z,98.03
2019-03-03T04:46:25.917Z,98.33
2019-03-03T04:51:47.993Z,98.97
2019-03-03T04:57:00.303Z,99.69
2019-03-03T05:02:28.459Z,100.00
2019-03-03T05:07:54.231Z,100.00
2019-03-03T05:13:31.563Z,100.00
2019-03-03T05:19:00.556Z,100.00
2019-03-03T05:24:03.437Z,100.00
2019-03-03T05:29:06.631Z,100.00
2019-03-03T05:34:09.881Z,100.00
2019-03-03T05:39:13.166Z,100.00
2019-03-03T05:44:16.393Z,100.00
2019-03-03T05:49:19.549Z,100.00
2019-03-03T05:54:22.473Z,100.00
2019-03-03T05:59:26.076Z,100.00
2019-03-03T06:04:28.935Z,100.00
2019-03-03T06:09:31.842Z,100.00
2019-03-03T06:14:35.124Z,100.00
2019-03-03T06:19:38.670Z,100.00
2019-03-03T06:24:41.575Z,100.00
2019-03-03T06:29:44.780Z,100.00
2019-03-03T06:34:47.981Z,100.00
2019-03-03T06:39:51.489Z,100.00
2019-03-03T06:44:54.382Z,100.00
2019-03-03T06:49:57.217Z,100.00
2019-03-03T06:55:00.778Z,100.00
2019-03-03T07:00:05.108Z,100.00
2019-03-03T07:05:09.170Z,100.00
2019-03-03T07:10:12.846Z,100.00
2019-03-03T07:15:15.725Z,100.00
2019-03-03T07:20:19.387Z,100.00
2019-03-03T07:25:23.015Z,100.00
2019-03-03T07:30:26.628Z,100.00
2019-03-03T07:35:29.535Z,100.00
2019-03-03T07:40:32.481Z,100.00
2019-03-03T07:45:35.799Z,100.00
2019-03-03T07:50:38.947Z,100.00
2019-03-03T07:55:41.922Z,100.00
2019-03-03T08:00:45.423Z,100.00
2019-03-03T08:05:48.634Z,100.00
2019-03-03T08:10:51.820Z,100.00
2019-03-03T08:15:55.552Z,100.00
2019-03-03T08:20:58.778Z,100.00
2019-03-03T08:26:02.270Z,100.00
2019-03-03T08:31:05.211Z,100.00
2019-03-03T08:36:09.614Z,100.00
2019-03-03T08:41:13.162Z,100.00
2019-03-03T08:46:36.649Z,100.00
2019-03-03T08:51:50.300Z,100.00
2019-03-03T08:57:21.930Z,100.00
2019-03-03T09:02:32.461Z,100.00
2019-03-03T09:07:52.149Z,100.00
2019-03-03T09:13:07.139Z,100.00
2019-03-03T09:18:28.996Z,100.00
2019-03-03T09:24:07.213Z,99.74
2019-03-03T09:29:17.486Z,98.75
2019-03-03T09:34:38.618Z,99.07
2019-03-03T09:39:49.412Z,99.33
2019-03-03T09:45:20.068Z,96.76
2019-03-03T09:50:51.972Z,97.55
2019-03-03T09:56:13.377Z,95.74
2019-03-03T10:01:35.854Z,96.13
2019-03-03T10:07:02.179Z,95.09
2019-03-03T10:12:10.117Z,94.06
2019-03-03T10:17:24.794Z,92.19
2019-03-03T10:22:46.268Z,90.07
2019-03-03T10:27:57.952Z,90.23
2019-03-03T10:33:20.454Z,88.62
2019-03-03T10:38:41.746Z,88.58
2019-03-03T10:44:04.282Z,88.19
2019-03-03T10:49:23.171Z,88.03
2019-03-03T10:54:45.753Z,88.13
2019-03-03T11:00:20.695Z,86.86
2019-03-03T11:05:46.634Z,86.06
2019-03-03T11:11:18.951Z,85.19
2019-03-03T11:16:39.992Z,83.58
2019-03-03T11:22:05.308Z,82.64
2019-03-03T11:27:40.168Z,80.91
2019-03-03T11:33:00.780Z,82.01
2019-03-03T11:38:21.955Z,80.04
2019-03-03T11:43:47.025Z,80.42
2019-03-03T11:49:08.468Z,78.78
2019-03-03T11:54:19.957Z,76.76
2019-03-03T11:59:36.580Z,75.60
2019-03-03T12:05:02.051Z,75.38
2019-03-03T12:10:43.948Z,76.19
2019-03-03T12:16:04.549Z,76.10
2019-03-03T12:21:13.995Z,77.06
2019-03-03T12:26:29.811Z,75.92
2019-03-03T12:31:52.867Z,76.38
2019-03-03T12:37:23.959Z,75.46
2019-03-03T12:42:55.392Z,75.56
2019-03-03T12:48:15.740Z,75.85
2019-03-03T12:53:27.257Z,74.75
2019-03-03T12:58:44.012Z,73.14
2019-03-03T13:04:06.938Z,73.18
2019-03-03T13:09:35.160Z,72.75
2019-03-03T13:15:03.440Z,72.64
2019-03-03T13:20:22.830Z,74.36
2019-03-03T13:25:44.255Z,74.07
2019-03-03T13:30:59.660Z,75.53
2019-03-03T13:36:25.674Z,75.34
2019-03-03T13:41:51.542Z,74.93
2019-03-03T13:46:54.444Z,73.65
2019-03-03T13:51:58.312Z,73.81
2019-03-03T13:57:01.888Z,74.51
2019-03-03T14:02:05.860Z,79.07
2019-03-03T14:07:09.430Z,72.60
2019-03-03T14:12:12.615Z,72.37
2019-03-03T14:17:16.151Z,73.90
2019-03-03T14:22:19.345Z,74.17
2019-03-03T14:27:22.892Z,73.35
2019-03-03T14:32:26.657Z,74.32
2019-03-03T14:37:30.239Z,75.21
2019-03-03T14:42:33.310Z,73.97
2019-03-03T14:47:36.207Z,75.10
2019-03-03T14:52:39.141Z,76.41
2019-03-03T14:57:42.046Z,74.84
2019-03-03T15:02:44.975Z,75.06
2019-03-03T15:07:47.876Z,77.23
2019-03-03T15:12:50.765Z,79.27
2019-03-03T15:17:54.210Z,80.31
2019-03-03T15:22:57.703Z,81.20
2019-03-03T15:28:01.288Z,82.28
2019-03-03T15:33:04.864Z,83.57
2019-03-03T15:38:08.349Z,84.09
2019-03-03T15:43:11.988Z,83.92
2019-03-03T15:48:15.536Z,85.12
2019-03-03T15:53:19.364Z,87.82
2019-03-03T15:58:23.529Z,88.44
2019-03-03T16:03:26.967Z,90.31
2019-03-03T16:08:30.305Z,91.93
2019-03-03T16:13:34.044Z,91.94
2019-03-03T16:18:37.445Z,92.96
2019-03-03T16:23:41.120Z,93.53
2019-03-03T16:28:44.381Z,93.29
2019-03-03T16:33:47.673Z,94.51
2019-03-03T16:38:50.661Z,95.54
2019-03-03T16:43:54.532Z,97.40
2019-03-03T16:48:58.146Z,97.54
2019-03-03T16:54:01.313Z,98.17
2019-03-03T16:59:04.763Z,98.97
2019-03-03T17:04:08.519Z,98.97
2019-03-03T17:09:32.940Z,99.37
2019-03-03T17:14:36.668Z,99.98
2019-03-03T17:19:40.257Z,100.00
2019-03-03T17:24:43.691Z,100.00
2019-03-03T17:29:47.517Z,100.00
2019-03-03T17:34:50.864Z,100.00
2019-03-03T17:39:54.592Z,100.00
2019-03-03T17:44:59.148Z,100.00
2019-03-03T17:50:04.730Z,100.00
2019-03-03T17:55:09.939Z,100.00
2019-03-03T18:00:22.087Z,100.00
2019-03-03T18:05:29.752Z,100.00
2019-03-03T18:10:34.070Z,100.00
2019-03-03T18:15:41.330Z,100.00
2019-03-03T18:20:48.336Z,100.00
2019-03-03T18:25:56.412Z,100.00
2019-03-03T18:31:03.571Z,100.00
2019-03-03T18:36:10.662Z,100.00
2019-03-03T18:41:18.260Z,100.00
2019-03-03T18:46:25.387Z,100.00
2019-03-03T18:51:33.343Z,100.00
2019-03-03T18:56:40.538Z,100.00
2019-03-03T19:01:48.269Z,100.00
2019-03-03T19:06:54.881Z,100.00
2019-03-03T19:12:03.913Z,100.00
2019-03-03T19:17:12.537Z,100.00
2019-03-03T19:22:21.768Z,100.00
2019-03-03T19:27:32.429Z,100.00
2019-03-03T19:32:40.221Z,100.00
2019-03-03T19:37:47.617Z,100.00
2019-03-03T19:42:56.943Z,100.00
2019-03-03T19:48:05.269Z,100.00
2019-03-03T19:53:12.104Z,100.00
2019-03-03T19:58:20.094Z,100.00
2019-03-03T20:03:28.210Z,100.00
2019-03-03T20:08:37.223Z,100.00
2019-03-03T20:13:47.078Z,100.00
2019-03-03T20:18:55.020Z,100.00
2019-03-03T20:24:03.553Z,100.00
2019-03-03T20:29:10.807Z,100.00
2019-03-03T20:34:19.942Z,100.00
2019-03-03T20:39:29.036Z,100.00
2019-03-03T20:44:38.264Z,100.00
2019-03-03T20:49:46.110Z,100.00
2019-03-03T20:54:53.370Z,100.00
2019-03-03T20:59:59.954Z,100.00
2019-03-03T21:05:07.961Z,100.00
2019-03-03T21:10:16.512Z,100.00
2019-03-03T21:15:23.792Z,100.00
2019-03-03T21:20:29.870Z,100.00
2019-03-03T21:25:34.669Z,100.00
2019-03-03T21:30:38.904Z,100.00
2019-03-03T21:35:42.124Z,100.00
2019-03-03T21:40:46.676Z,100.00
2019-03-03T21:45:50.454Z,100.00
2019-03-03T21:50:54.098Z,100.00
2019-03-03T21:55:57.963Z,100.00
2019-03-03T22:01:01.598Z,100.00
2019-03-03T22:06:05.245Z,100.00
2019-03-03T22:11:08.081Z,100.00
2019-03-03T22:16:11.038Z,100.00
2019-03-03T22:21:14.389Z,100.00
2019-03-03T22:26:18.897Z,100.00
2019-03-03T22:31:21.886Z,100.00
2019-03-03T22:36:25.222Z,100.00
2019-03-03T22:41:28.749Z,100.00
2019-03-03T22:46:32.273Z,100.00
2019-03-03T22:51:35.914Z,100.00
2019-03-03T22:56:38.801Z,100.00
2019-03-03T23:01:44.477Z,100.00
2019-03-03T23:07:05.121Z,100.00
2019-03-03T23:12:47.218Z,100.00
2019-03-03T23:18:22.803Z,100.00
2019-03-03T23:24:08.488Z,100.00
2019-03-03T23:29:12.008Z,100.00
2019-03-03T23:34:16.024Z,100.00
2019-03-03T23:39:18.528Z,100.00
2019-03-03T23:44:21.268Z,100.00
2019-03-03T23:49:24.467Z,100.00
2019-03-03T23:54:28.043Z,100.00
2019-03-03T23:59:31.595Z,100.00
